Airfield :







YOU CAN JOIN US ON...

 
LOGIN :

Register | Disclaimer

   EN    FR    IT 

 









Legend :    VFR   Marginal VFR   IFR   Intensive IFR   Very Intensive IFR
Visi :
Ceiling :
>= 8 km
>= 3000ft
5 to 8 km
1000 to 3000 ft
1500m to 5 km
500 to 1000 ft
800 to 1500m
200 to 500 ft
< 800m
< 200 ft
Symbols :   Thunderstorms  Fog  Heavy snow  Heavy precipitations  Wind > 20 kt







- Airport Elevation : 522 ft
- IATA code : YBG


CYBG - CFB Bagotville

CURRENT METAR :
  • 201700Z 27011KT 25SM OVC030 20/14 A3006 RMK SC8 SLP181

EXPIRED METARs :
  • 201600Z 27010KT 25SM OVC030 19/14 A3007 RMK SC8 SLP184
  • 201500Z 27007KT 25SM OVC030 19/13 A3007 RMK SC8 SLP187

TAF TAF CYBG
Valid from the 20 at 18:00 until the 21 at 18:00 UTC


201730Z 2018/2118 27012KT P6SM OVC030
TEMPO 2018/2023 P6SM -SHRA BKN020 OVC030
FM202300 28010KT P6SM FEW020 SCT030
FM210400 28005KT P6SM SKC
PROB30 2108/2112 2SM BR
FM211600 30005KT P6SM FEW030 RMK NXT FCST BY 202100Z
No reported NOTAMs for that airfield.



MET'MAP, your aeronautical weather chart ! - Copyright ORBIFLY December 2007 - Disclaimer

ORBIFLY MET'MAP TEAM :

Programming & Development : Alexandra Zaïnal
Concept & Development : Baudouin d'Aumeries
Co-Development & Prog : Marc-Olivier Méhu
Technical & hardware support : Manuel Goepfert

Contact : metmap@orbifly.com




SOURCES & CREDITS :

   NOAA